createdAt,value
2022-10-31T00:01:01.982Z,14.56
2022-10-31T00:03:04.835Z,14.57
2022-10-31T00:05:08.247Z,14.55
2022-10-31T00:07:11.018Z,14.56
2022-10-31T00:09:13.991Z,14.53
2022-10-31T00:11:16.710Z,14.51
2022-10-31T00:13:19.557Z,14.48
2022-10-31T00:15:23.748Z,14.48
2022-10-31T00:17:26.551Z,14.43
2022-10-31T00:19:29.308Z,14.44
2022-10-31T00:21:33.176Z,14.43
2022-10-31T00:23:35.923Z,14.38
2022-10-31T00:25:40.811Z,14.40
2022-10-31T00:27:43.548Z,14.37
2022-10-31T00:29:47.719Z,14.36
2022-10-31T00:31:51.832Z,14.35
2022-10-31T00:33:54.562Z,14.32
2022-10-31T00:35:58.158Z,14.32
2022-10-31T00:38:00.932Z,14.30
2022-10-31T00:40:03.909Z,14.28
2022-10-31T00:42:07.635Z,14.27
2022-10-31T00:44:10.443Z,14.26
2022-10-31T00:46:13.965Z,14.23
2022-10-31T00:48:18.851Z,14.21
2022-10-31T00:50:21.615Z,14.14
2022-10-31T00:52:25.043Z,14.13
2022-10-31T00:54:27.800Z,14.15
2022-10-31T00:56:31.389Z,14.18
2022-10-31T00:58:37.547Z,14.24
2022-10-31T01:00:40.592Z,14.22
2022-10-31T01:02:43.722Z,14.24
2022-10-31T01:04:47.959Z,14.25
2022-10-31T01:06:50.698Z,14.23
2022-10-31T01:08:53.493Z,14.24
2022-10-31T01:11:08.853Z,14.25
2022-10-31T01:13:11.661Z,14.22
2022-10-31T01:15:16.348Z,14.22
2022-10-31T01:17:18.975Z,14.11
2022-10-31T01:19:23.427Z,14.16
2022-10-31T01:21:29.785Z,14.18
2022-10-31T01:23:36.115Z,14.18
2022-10-31T01:25:38.848Z,14.17
2022-10-31T01:27:41.596Z,14.18
2022-10-31T01:29:44.411Z,14.15
2022-10-31T01:31:47.289Z,14.14
2022-10-31T01:33:51.081Z,14.13
2022-10-31T01:35:54.986Z,14.12
2022-10-31T01:37:59.118Z,14.08
2022-10-31T01:40:01.853Z,14.06
2022-10-31T01:42:04.952Z,14.05
2022-10-31T01:44:41.230Z,14.07
2022-10-31T01:46:46.151Z,13.89
2022-10-31T01:48:49.703Z,13.92
2022-10-31T01:50:56.237Z,13.94
2022-10-31T01:53:03.527Z,13.93
2022-10-31T01:55:11.737Z,13.93
2022-10-31T01:57:16.598Z,13.97
2022-10-31T01:59:22.810Z,14.00
2022-10-31T02:01:44.925Z,13.98
2022-10-31T02:04:08.036Z,13.96
2022-10-31T02:06:21.077Z,13.94
2022-10-31T02:08:28.649Z,13.93
2022-10-31T02:10:35.379Z,13.93
2022-10-31T02:12:38.723Z,13.92
2022-10-31T02:14:42.463Z,13.90
2022-10-31T02:16:45.219Z,13.89
2022-10-31T02:18:48.391Z,13.90
2022-10-31T02:21:08.980Z,13.92
2022-10-31T02:24:00.621Z,13.91
2022-10-31T02:26:46.887Z,13.84
2022-10-31T02:29:08.084Z,13.82
2022-10-31T02:31:23.131Z,13.84
2022-10-31T02:33:28.428Z,13.70
2022-10-31T02:35:42.555Z,13.75
2022-10-31T02:37:53.154Z,13.78
2022-10-31T02:40:05.802Z,13.81
2022-10-31T02:42:34.127Z,13.79
2022-10-31T02:44:42.770Z,13.79
2022-10-31T02:46:51.004Z,13.78
2022-10-31T02:48:58.597Z,13.77
2022-10-31T02:51:04.472Z,13.73
2022-10-31T02:53:07.472Z,13.73
2022-10-31T02:55:34.825Z,13.75
2022-10-31T02:57:41.009Z,13.72
2022-10-31T02:59:48.781Z,13.73
2022-10-31T03:02:08.343Z,13.72
2022-10-31T03:04:36.998Z,13.71
2022-10-31T03:06:47.459Z,13.70
2022-10-31T03:08:56.991Z,13.69
2022-10-31T03:11:01.714Z,13.69
2022-10-31T03:13:12.839Z,13.75
2022-10-31T03:15:21.272Z,13.72
2022-10-31T03:17:32.927Z,13.67
2022-10-31T03:19:41.053Z,13.70
2022-10-31T03:21:47.945Z,13.71
2022-10-31T03:23:55.405Z,13.66
2022-10-31T03:26:00.492Z,13.59
2022-10-31T03:28:05.361Z,13.63
2022-10-31T03:30:10.417Z,13.65
2022-10-31T03:32:33.462Z,13.65
2022-10-31T03:34:39.910Z,13.63
2022-10-31T03:36:44.077Z,13.62
2022-10-31T03:38:48.504Z,13.61
2022-10-31T03:40:56.514Z,13.62
2022-10-31T03:43:05.680Z,13.68
2022-10-31T03:45:13.284Z,13.66
2022-10-31T03:47:17.721Z,13.64
2022-10-31T03:49:26.473Z,13.65
2022-10-31T03:51:38.914Z,13.68
2022-10-31T03:53:45.722Z,13.63
2022-10-31T03:56:00.070Z,13.58
2022-10-31T03:58:08.779Z,13.56
2022-10-31T04:00:14.965Z,13.58
2022-10-31T04:02:30.783Z,13.57
2022-10-31T04:04:36.638Z,13.50
2022-10-31T04:06:44.070Z,13.51
2022-10-31T04:08:52.463Z,13.51
2022-10-31T04:10:58.063Z,13.43
2022-10-31T04:13:06.921Z,13.44
2022-10-31T04:15:16.418Z,13.42
2022-10-31T04:17:23.195Z,13.44
2022-10-31T04:19:26.530Z,13.35
2022-10-31T04:21:31.645Z,13.35
2022-10-31T04:23:36.184Z,13.32
2022-10-31T04:25:46.650Z,13.33
2022-10-31T04:27:49.416Z,13.35
2022-10-31T04:29:52.272Z,13.32
2022-10-31T04:31:55.051Z,13.30
2022-10-31T04:33:57.970Z,13.33
2022-10-31T04:36:00.763Z,13.35
2022-10-31T04:38:05.006Z,13.30
2022-10-31T04:40:08.920Z,13.19
2022-10-31T04:42:41.115Z,13.04
2022-10-31T04:44:43.993Z,13.02
2022-10-31T04:46:46.834Z,13.04
2022-10-31T04:48:49.634Z,13.03
2022-10-31T04:50:52.992Z,12.95
2022-10-31T04:52:56.220Z,12.83
2022-10-31T04:55:04.419Z,12.71
2022-10-31T04:57:25.845Z,12.63
2022-10-31T04:59:28.721Z,12.66
2022-10-31T05:01:31.787Z,12.65
2022-10-31T05:03:36.475Z,12.60
2022-10-31T05:05:39.697Z,12.58
2022-10-31T05:07:42.908Z,12.66
2022-10-31T05:09:45.961Z,12.71
2022-10-31T05:11:51.417Z,12.77
2022-10-31T05:14:14.423Z,12.81
2022-10-31T05:16:40.413Z,12.80
2022-10-31T05:19:06.446Z,12.68
2022-10-31T05:21:27.549Z,12.68
2022-10-31T05:23:35.499Z,12.74
2022-10-31T05:25:38.772Z,12.78
2022-10-31T05:27:43.225Z,12.81
2022-10-31T05:29:45.959Z,12.77
2022-10-31T05:31:48.747Z,12.79
2022-10-31T05:34:11.469Z,12.75
2022-10-31T05:36:36.989Z,12.56
2022-10-31T05:38:46.890Z,12.61
2022-10-31T05:41:00.911Z,12.62
2022-10-31T05:43:05.139Z,12.63
2022-10-31T05:45:09.890Z,12.55
2022-10-31T05:47:27.944Z,12.52
2022-10-31T05:50:07.321Z,12.51
2022-10-31T05:52:12.736Z,12.57
2022-10-31T05:54:24.176Z,12.59
2022-10-31T05:56:27.005Z,12.59
2022-10-31T05:58:34.004Z,12.62
2022-10-31T06:00:40.971Z,12.61
2022-10-31T06:02:45.377Z,12.46
2022-10-31T06:05:02.561Z,12.50
2022-10-31T06:07:05.469Z,12.54
2022-10-31T06:09:09.141Z,12.53
2022-10-31T06:11:12.971Z,12.50
2022-10-31T06:13:46.262Z,12.45
2022-10-31T06:15:55.206Z,12.37
2022-10-31T06:18:03.249Z,12.39
2022-10-31T06:20:10.841Z,12.40
2022-10-31T06:22:23.892Z,12.40
2022-10-31T06:24:26.701Z,12.43
2022-10-31T06:26:29.539Z,12.42
2022-10-31T06:28:32.336Z,12.44
2022-10-31T06:30:50.763Z,12.43
2022-10-31T06:32:54.231Z,12.45
2022-10-31T06:34:59.837Z,12.46
2022-10-31T06:37:02.872Z,12.45
2022-10-31T06:39:07.204Z,12.45
2022-10-31T06:41:10.098Z,12.49
2022-10-31T06:43:21.146Z,12.50
2022-10-31T06:45:24.027Z,12.54
2022-10-31T06:48:15.376Z,12.55
2022-10-31T06:50:26.430Z,12.55
2022-10-31T06:52:29.868Z,12.57
2022-10-31T06:54:32.706Z,12.62
2022-10-31T06:56:35.580Z,12.66
2022-10-31T06:58:38.876Z,12.67
2022-10-31T07:00:45.659Z,12.66
2022-10-31T07:02:58.181Z,12.70
2022-10-31T07:05:01.089Z,12.75
2022-10-31T07:07:04.257Z,12.78
2022-10-31T07:09:07.747Z,12.82
2022-10-31T07:11:10.560Z,12.86
2022-10-31T07:13:16.271Z,12.85
2022-10-31T07:15:27.027Z,12.93
2022-10-31T07:17:30.304Z,12.93
2022-10-31T07:19:37.099Z,12.98
2022-10-31T07:21:39.835Z,12.96
2022-10-31T07:23:43.434Z,13.06
2022-10-31T07:26:04.949Z,13.13
2022-10-31T07:28:15.862Z,13.20
2022-10-31T07:30:22.588Z,13.26
2022-10-31T07:32:28.194Z,13.30
2022-10-31T07:34:34.249Z,13.33
2022-10-31T07:36:57.328Z,13.44
2022-10-31T07:39:03.134Z,13.48
2022-10-31T07:41:07.285Z,13.51
2022-10-31T07:43:15.075Z,13.58
2022-10-31T07:45:35.106Z,13.65
2022-10-31T07:47:56.824Z,13.67
2022-10-31T07:50:20.092Z,13.68
2022-10-31T07:52:42.831Z,13.72
2022-10-31T07:55:05.238Z,13.75
2022-10-31T07:57:07.977Z,13.77
2022-10-31T07:59:11.247Z,13.79
2022-10-31T08:01:14.055Z,13.85
2022-10-31T08:03:24.402Z,13.86
2022-10-31T08:05:27.376Z,13.91
2022-10-31T08:07:49.829Z,13.98
2022-10-31T08:09:57.494Z,14.03
2022-10-31T08:12:05.225Z,14.08
2022-10-31T08:14:09.845Z,14.11
2022-10-31T08:16:12.669Z,14.16
2022-10-31T08:18:25.365Z,14.20
2022-10-31T08:20:28.856Z,14.30
2022-10-31T08:22:31.791Z,14.31
2022-10-31T08:24:36.883Z,14.34
2022-10-31T08:26:39.947Z,14.37
2022-10-31T08:28:45.474Z,14.41
2022-10-31T08:30:48.811Z,14.42
2022-10-31T08:33:12.866Z,14.44
2022-10-31T08:35:35.022Z,14.47
2022-10-31T08:38:00.823Z,14.50
2022-10-31T08:40:06.268Z,14.55
2022-10-31T08:42:10.669Z,14.58
2022-10-31T08:44:14.693Z,14.61
2022-10-31T08:46:20.708Z,14.67
2022-10-31T08:48:24.340Z,14.74
2022-10-31T08:50:27.857Z,14.79
2022-10-31T08:52:58.987Z,14.84
2022-10-31T08:54:53.972Z,14.86
2022-10-31T08:57:16.724Z,14.91
2022-10-31T08:59:22.883Z,14.93
2022-10-31T09:01:51.604Z,14.95
2022-10-31T09:03:54.898Z,14.94
2022-10-31T09:06:00.643Z,14.98
2022-10-31T09:08:10.431Z,15.04
2022-10-31T09:10:16.372Z,15.07
2022-10-31T09:12:21.513Z,15.09
2022-10-31T09:14:53.611Z,15.11
2022-10-31T09:17:07.289Z,15.11
2022-10-31T09:19:27.322Z,15.13
2022-10-31T09:21:30.086Z,15.16
2022-10-31T09:23:34.921Z,15.24
2022-10-31T09:25:37.957Z,15.22
2022-10-31T09:28:06.516Z,15.25
2022-10-31T09:30:10.854Z,15.30
2022-10-31T09:32:13.808Z,15.27
2022-10-31T09:34:21.620Z,15.23
2022-10-31T09:36:47.343Z,15.33
2022-10-31T09:38:55.014Z,15.44
2022-10-31T09:41:15.355Z,15.55
2022-10-31T09:43:27.876Z,15.62
2022-10-31T09:45:36.745Z,15.67
2022-10-31T09:48:10.944Z,15.75
2022-10-31T09:50:20.425Z,15.79
2022-10-31T09:52:32.033Z,15.88
2022-10-31T09:54:42.141Z,15.94
2022-10-31T09:56:45.905Z,16.03
2022-10-31T09:58:54.788Z,16.14
2022-10-31T10:01:01.186Z,16.22
2022-10-31T10:03:12.337Z,16.25
2022-10-31T10:05:20.665Z,16.25
2022-10-31T10:07:41.595Z,16.26
2022-10-31T10:10:31.642Z,16.28
2022-10-31T10:13:21.140Z,16.33
2022-10-31T10:15:42.543Z,16.29
2022-10-31T10:18:01.771Z,16.38
2022-10-31T10:20:20.925Z,16.52
2022-10-31T10:22:34.850Z,16.56
2022-10-31T10:24:56.244Z,16.57
2022-10-31T10:27:08.387Z,16.56
2022-10-31T10:29:31.796Z,16.63
2022-10-31T10:31:41.388Z,16.67
2022-10-31T10:33:57.946Z,16.69
2022-10-31T10:36:02.881Z,16.61
2022-10-31T10:38:16.511Z,16.67
2022-10-31T10:40:21.375Z,16.80
2022-10-31T10:42:45.661Z,16.84
2022-10-31T10:45:09.425Z,16.86
2022-10-31T10:47:31.324Z,16.88
2022-10-31T10:49:42.211Z,16.93
2022-10-31T10:52:13.238Z,16.96
2022-10-31T10:54:28.820Z,17.03
2022-10-31T10:56:42.790Z,16.93
2022-10-31T10:58:46.367Z,16.97
2022-10-31T11:00:50.782Z,16.99
2022-10-31T11:02:55.504Z,17.05
2022-10-31T11:05:00.994Z,17.08
2022-10-31T11:07:06.477Z,17.13
2022-10-31T11:09:11.711Z,17.13
2022-10-31T11:11:29.061Z,17.18
2022-10-31T11:13:32.694Z,17.15
2022-10-31T11:15:39.809Z,17.20
2022-10-31T11:17:42.702Z,17.27
2022-10-31T11:19:46.847Z,17.32
2022-10-31T11:21:52.768Z,17.31
2022-10-31T11:24:04.944Z,17.36
2022-10-31T11:26:22.654Z,17.34
2022-10-31T11:28:25.691Z,17.42
2022-10-31T11:30:28.959Z,17.48
2022-10-31T11:32:31.957Z,17.38
2022-10-31T11:34:39.621Z,17.39
2022-10-31T11:36:46.386Z,17.36
2022-10-31T11:38:50.164Z,17.44
2022-10-31T11:41:00.465Z,17.61
2022-10-31T11:43:03.238Z,17.54
2022-10-31T11:45:17.108Z,17.59
2022-10-31T11:47:25.470Z,17.56
2022-10-31T11:49:39.925Z,17.58
2022-10-31T11:51:44.279Z,17.63
2022-10-31T11:53:56.762Z,17.61
2022-10-31T11:56:12.647Z,17.60
2022-10-31T11:58:25.804Z,17.71
2022-10-31T12:00:31.246Z,17.63
2022-10-31T12:02:34.046Z,17.60
2022-10-31T12:04:43.263Z,17.65
2022-10-31T12:06:49.781Z,17.65
2022-10-31T12:08:52.761Z,17.66
2022-10-31T12:11:04.632Z,17.69
2022-10-31T12:13:18.512Z,17.70
2022-10-31T12:15:32.605Z,17.74
2022-10-31T12:17:41.747Z,17.73
2022-10-31T12:19:55.336Z,17.76
2022-10-31T12:22:10.285Z,17.76
2022-10-31T12:24:24.710Z,17.88
2022-10-31T12:26:36.561Z,17.79
2022-10-31T12:28:55.688Z,17.82
2022-10-31T12:31:11.190Z,17.80
2022-10-31T12:33:27.731Z,17.80
2022-10-31T12:35:41.301Z,17.93
2022-10-31T12:37:57.290Z,17.83
2022-10-31T12:40:14.388Z,17.70
2022-10-31T12:42:33.525Z,17.64
2022-10-31T12:45:01.534Z,17.64
2022-10-31T12:47:23.024Z,17.59
2022-10-31T12:49:40.865Z,17.55
2022-10-31T12:51:54.264Z,17.54
2022-10-31T12:54:19.226Z,17.62
2022-10-31T12:56:37.273Z,17.73
2022-10-31T12:58:46.656Z,17.77
2022-10-31T13:00:53.761Z,17.78
2022-10-31T13:03:00.945Z,17.79
2022-10-31T13:05:06.832Z,17.83
2022-10-31T13:07:16.087Z,17.77
2022-10-31T13:09:27.573Z,17.75
2022-10-31T13:11:35.976Z,17.76
2022-10-31T13:13:43.976Z,17.79
2022-10-31T13:15:51.273Z,17.86
2022-10-31T13:17:57.650Z,17.88
2022-10-31T13:20:17.488Z,17.87
2022-10-31T13:22:24.433Z,17.79
2022-10-31T13:24:35.839Z,17.81
2022-10-31T13:26:43.803Z,17.82
2022-10-31T13:30:58.265Z,17.79
2022-10-31T13:33:06.933Z,17.82
2022-10-31T13:35:16.630Z,17.83
2022-10-31T13:37:28.759Z,17.89
2022-10-31T13:39:46.874Z,17.96
2022-10-31T13:41:56.393Z,18.03
2022-10-31T13:44:03.376Z,18.03
2022-10-31T13:46:25.041Z,18.03
2022-10-31T13:48:42.100Z,18.15
2022-10-31T13:50:56.318Z,18.28
2022-10-31T13:53:13.478Z,18.21
2022-10-31T13:55:39.137Z,18.26
2022-10-31T13:57:45.187Z,18.18
2022-10-31T13:59:52.451Z,18.12
2022-10-31T14:01:58.104Z,18.04
2022-10-31T14:04:13.162Z,18.01
2022-10-31T14:06:18.189Z,18.03
2022-10-31T14:08:23.972Z,18.04
2022-10-31T14:10:29.404Z,18.03
2022-10-31T14:12:37.841Z,18.00
2022-10-31T14:14:49.887Z,18.06
2022-10-31T14:16:58.339Z,18.16
2022-10-31T14:19:04.255Z,18.22
2022-10-31T14:21:17.370Z,18.21
2022-10-31T14:23:40.959Z,18.03
2022-10-31T14:25:43.739Z,17.99
2022-10-31T14:27:49.192Z,18.03
2022-10-31T14:29:52.929Z,18.04
2022-10-31T14:32:08.457Z,18.07
2022-10-31T14:34:24.310Z,18.05
2022-10-31T14:36:39.193Z,18.05
2022-10-31T14:38:56.907Z,18.02
2022-10-31T14:41:42.172Z,18.00
2022-10-31T14:44:11.976Z,17.93
2022-10-31T14:46:26.970Z,17.87
2022-10-31T14:48:37.194Z,17.69
2022-10-31T14:50:46.977Z,17.70
2022-10-31T14:52:54.402Z,17.69
2022-10-31T14:55:00.272Z,17.66
2022-10-31T14:57:07.507Z,17.58
2022-10-31T14:59:16.659Z,17.53
2022-10-31T15:01:25.160Z,17.53
2022-10-31T15:03:33.691Z,17.55
2022-10-31T15:05:42.630Z,17.56
2022-10-31T15:07:52.616Z,17.57
2022-10-31T15:09:59.555Z,17.59
2022-10-31T15:12:02.745Z,17.58
2022-10-31T15:14:24.596Z,17.57
2022-10-31T15:16:33.531Z,17.57
2022-10-31T15:18:36.330Z,17.55
2022-10-31T15:20:45.024Z,17.55
2022-10-31T15:22:48.182Z,17.57
2022-10-31T15:24:56.902Z,17.54
2022-10-31T15:27:04.887Z,17.55
2022-10-31T15:29:14.768Z,17.56
2022-10-31T15:31:19.295Z,17.56
2022-10-31T15:33:23.497Z,17.41
2022-10-31T15:35:28.222Z,17.39
2022-10-31T15:37:31.049Z,17.37
2022-10-31T15:39:34.161Z,17.39
2022-10-31T15:41:54.227Z,17.40
2022-10-31T15:44:02.240Z,17.44
2022-10-31T15:46:07.007Z,17.49
2022-10-31T15:48:19.149Z,17.46
2022-10-31T15:50:43.499Z,17.44
2022-10-31T15:52:50.923Z,17.31
2022-10-31T15:54:57.276Z,17.26
2022-10-31T15:57:00.154Z,17.24
2022-10-31T15:59:03.921Z,17.48
2022-10-31T16:01:21.157Z,17.54
2022-10-31T16:03:28.379Z,17.35
2022-10-31T16:05:37.715Z,17.27
2022-10-31T16:07:50.739Z,17.36
2022-10-31T16:09:56.935Z,17.26
2022-10-31T16:12:00.719Z,17.29
2022-10-31T16:14:07.460Z,17.16
2022-10-31T16:16:34.228Z,17.10
2022-10-31T16:18:41.433Z,17.07
2022-10-31T16:20:53.481Z,17.03
2022-10-31T16:22:59.250Z,17.00
2022-10-31T16:25:06.952Z,16.93
2022-10-31T16:27:30.279Z,16.84
2022-10-31T16:29:38.022Z,16.72
2022-10-31T16:31:42.030Z,16.58
2022-10-31T16:33:46.158Z,16.45
2022-10-31T16:35:48.953Z,16.38
2022-10-31T16:37:52.010Z,16.43
2022-10-31T16:39:54.903Z,16.50
2022-10-31T16:41:58.318Z,16.55
2022-10-31T16:44:04.113Z,16.49
2022-10-31T16:46:06.954Z,16.42
2022-10-31T16:48:15.605Z,16.53
2022-10-31T16:50:22.784Z,16.61
2022-10-31T16:52:25.547Z,16.65
2022-10-31T16:54:31.800Z,16.70
2022-10-31T16:56:37.276Z,16.69
2022-10-31T16:58:40.172Z,16.69
2022-10-31T17:00:43.037Z,16.70
2022-10-31T17:02:47.017Z,16.73
2022-10-31T17:04:53.716Z,16.76
2022-10-31T17:07:00.803Z,16.71
2022-10-31T17:09:03.545Z,16.60
2022-10-31T17:11:07.545Z,16.58
2022-10-31T17:13:16.512Z,16.60
2022-10-31T17:15:23.285Z,16.50
2022-10-31T17:17:26.103Z,16.44
2022-10-31T17:19:28.863Z,16.38
2022-10-31T17:21:31.978Z,16.35
2022-10-31T17:23:38.139Z,16.34
2022-10-31T17:25:41.470Z,16.32
2022-10-31T17:27:47.281Z,16.31
2022-10-31T17:29:50.313Z,16.16
2022-10-31T17:31:53.100Z,15.94
2022-10-31T17:34:01.795Z,15.87
2022-10-31T17:36:07.389Z,15.79
2022-10-31T17:38:10.382Z,15.82
2022-10-31T17:40:17.345Z,15.95
2022-10-31T17:42:20.370Z,16.03
2022-10-31T17:44:23.161Z,16.04
2022-10-31T17:46:26.248Z,16.02
2022-10-31T17:48:29.493Z,16.03
2022-10-31T17:50:32.468Z,15.97
2022-10-31T17:52:35.333Z,15.86
2022-10-31T17:54:38.120Z,15.86
2022-10-31T17:56:42.263Z,15.84
2022-10-31T17:58:45.073Z,15.70
2022-10-31T18:00:50.464Z,15.58
2022-10-31T18:02:54.211Z,15.59
2022-10-31T18:04:57.067Z,15.62
2022-10-31T18:06:59.895Z,15.59
2022-10-31T18:09:04.609Z,15.56
2022-10-31T18:11:09.132Z,15.43
2022-10-31T18:13:13.322Z,15.48
2022-10-31T18:15:17.105Z,15.53
2022-10-31T18:17:20.329Z,15.59
2022-10-31T18:19:23.218Z,15.64
2022-10-31T18:21:26.412Z,15.59
2022-10-31T18:23:29.171Z,15.52
2022-10-31T18:25:32.048Z,15.47
2022-10-31T18:27:34.834Z,15.36
2022-10-31T18:29:39.144Z,15.39
2022-10-31T18:31:41.944Z,15.44
2022-10-31T18:33:44.759Z,15.53
2022-10-31T18:35:47.538Z,15.61
2022-10-31T18:37:50.379Z,15.63
2022-10-31T18:39:53.161Z,15.64
2022-10-31T18:41:55.960Z,15.63
2022-10-31T18:44:00.170Z,15.61
2022-10-31T18:46:05.563Z,15.60
2022-10-31T18:48:08.356Z,15.58
2022-10-31T18:50:11.367Z,15.56
2022-10-31T18:52:14.178Z,15.57
2022-10-31T18:54:16.999Z,15.54
2022-10-31T18:56:20.256Z,15.53
2022-10-31T18:58:23.093Z,15.52
2022-10-31T19:00:25.888Z,15.52
2022-10-31T19:02:30.206Z,15.54
2022-10-31T19:04:33.069Z,15.46
2022-10-31T19:06:35.941Z,15.39
2022-10-31T19:08:39.498Z,15.43
2022-10-31T19:10:42.622Z,15.41
2022-10-31T19:12:45.436Z,15.42
2022-10-31T19:14:49.074Z,15.41
2022-10-31T19:16:52.684Z,15.48
2022-10-31T19:18:59.863Z,15.43
2022-10-31T19:21:06.425Z,15.35
2022-10-31T19:23:09.271Z,15.29
2022-10-31T19:25:12.020Z,15.31
2022-10-31T19:27:14.808Z,15.33
2022-10-31T19:29:17.656Z,15.31
2022-10-31T19:31:20.579Z,15.27
2022-10-31T19:33:23.437Z,15.22
2022-10-31T19:35:27.566Z,15.21
2022-10-31T19:37:30.357Z,15.24
2022-10-31T19:39:33.210Z,15.20
2022-10-31T19:41:36.173Z,15.12
2022-10-31T19:43:39.479Z,15.07
2022-10-31T19:45:42.235Z,15.02
2022-10-31T19:47:44.965Z,15.04
2022-10-31T19:49:47.697Z,15.12
2022-10-31T19:51:52.125Z,14.96
2022-10-31T19:53:55.043Z,14.63
2022-10-31T19:55:58.011Z,14.56
2022-10-31T19:58:02.141Z,14.66
2022-10-31T20:00:06.300Z,14.74
2022-10-31T20:02:19.811Z,14.72
2022-10-31T20:04:22.594Z,14.69
2022-10-31T20:06:26.961Z,14.72
2022-10-31T20:08:32.739Z,14.74
2022-10-31T20:10:38.525Z,14.74
2022-10-31T20:12:41.285Z,14.84
2022-10-31T20:14:44.066Z,14.75
2022-10-31T20:16:47.514Z,14.74
2022-10-31T20:18:50.428Z,14.64
2022-10-31T20:20:53.411Z,14.64
2022-10-31T20:22:56.189Z,14.63
2022-10-31T20:25:00.288Z,14.64
2022-10-31T20:27:04.276Z,14.62
2022-10-31T20:29:07.771Z,14.62
2022-10-31T20:31:12.198Z,14.64
2022-10-31T20:33:15.034Z,14.65
2022-10-31T20:35:18.352Z,14.69
2022-10-31T20:37:21.174Z,14.61
2022-10-31T20:39:23.991Z,14.56
2022-10-31T20:41:28.194Z,14.56
2022-10-31T20:43:31.249Z,14.47
2022-10-31T20:45:34.148Z,14.45
2022-10-31T20:47:36.918Z,14.46
2022-10-31T20:49:39.723Z,14.47
2022-10-31T20:51:42.528Z,14.45
2022-10-31T20:53:45.551Z,14.42
2022-10-31T20:55:48.403Z,14.49
2022-10-31T20:57:52.527Z,14.57
2022-10-31T20:59:55.318Z,14.62
2022-10-31T21:01:58.805Z,14.62
2022-10-31T21:04:01.781Z,14.61
2022-10-31T21:06:05.994Z,14.60
2022-10-31T21:08:08.737Z,14.60
2022-10-31T21:10:15.615Z,14.62
2022-10-31T21:12:18.646Z,14.65
2022-10-31T21:14:22.921Z,14.69
2022-10-31T21:16:27.823Z,14.64
2022-10-31T21:18:30.710Z,14.63
2022-10-31T21:20:33.484Z,14.74
2022-10-31T21:22:36.291Z,14.60
2022-10-31T21:24:39.226Z,14.58
2022-10-31T21:26:45.320Z,14.58
2022-10-31T21:28:48.574Z,14.49
2022-10-31T21:30:52.694Z,14.41
2022-10-31T21:32:55.484Z,14.37
2022-10-31T21:34:58.299Z,14.37
2022-10-31T21:37:01.133Z,14.36
2022-10-31T21:39:05.283Z,14.38
2022-10-31T21:41:10.583Z,14.36
2022-10-31T21:43:13.361Z,14.36
2022-10-31T21:45:16.209Z,14.37
2022-10-31T21:47:20.566Z,14.37
2022-10-31T21:49:23.367Z,14.32
2022-10-31T21:51:28.987Z,14.32
2022-10-31T21:53:49.344Z,14.36
2022-10-31T21:55:52.149Z,14.32
2022-10-31T21:57:54.947Z,14.28
2022-10-31T21:59:57.821Z,14.24
2022-10-31T22:02:01.267Z,14.26
2022-10-31T22:04:06.039Z,14.26
2022-10-31T22:06:10.238Z,14.17
2022-10-31T22:08:12.983Z,14.22
2022-10-31T22:10:15.957Z,14.27
2022-10-31T22:12:18.754Z,14.24
2022-10-31T22:14:21.738Z,14.28
2022-10-31T22:16:26.261Z,14.34
2022-10-31T22:18:29.259Z,14.29
2022-10-31T22:20:33.351Z,14.35
2022-10-31T22:22:36.144Z,14.38
2022-10-31T22:24:38.942Z,14.41
2022-10-31T22:26:42.072Z,14.39
2022-10-31T22:28:46.968Z,14.47
2022-10-31T22:30:49.821Z,14.39
2022-10-31T22:32:52.797Z,14.49
2022-10-31T22:34:55.562Z,14.42
2022-10-31T22:36:59.651Z,14.40
2022-10-31T22:39:02.468Z,14.44
2022-10-31T22:41:05.193Z,14.45
2022-10-31T22:43:07.979Z,14.46
2022-10-31T22:45:11.450Z,14.42
2022-10-31T22:47:14.269Z,14.39
2022-10-31T22:49:17.147Z,14.37
2022-10-31T22:51:21.577Z,14.42
2022-10-31T22:53:25.711Z,14.35
2022-10-31T22:55:28.506Z,14.34
2022-10-31T22:57:31.307Z,14.41
2022-10-31T22:59:34.104Z,14.40
2022-10-31T23:01:37.253Z,14.43
2022-10-31T23:03:40.518Z,14.49
2022-10-31T23:05:43.269Z,14.45
2022-10-31T23:07:46.027Z,14.42
2022-10-31T23:09:50.151Z,14.41
2022-10-31T23:11:52.888Z,14.42
2022-10-31T23:14:13.794Z,14.40
2022-10-31T23:16:18.620Z,14.43
2022-10-31T23:18:48.003Z,14.33
2022-10-31T23:20:44.222Z,14.35
2022-10-31T23:22:46.997Z,14.42
2022-10-31T23:24:51.122Z,14.39
2022-10-31T23:27:09.690Z,14.34
2022-10-31T23:29:11.512Z,14.45
2022-10-31T23:31:14.621Z,14.45
2022-10-31T23:33:17.394Z,14.40
2022-10-31T23:35:20.192Z,14.40
2022-10-31T23:37:24.731Z,14.37
2022-10-31T23:39:27.577Z,14.35
2022-10-31T23:41:31.771Z,14.39
2022-10-31T23:43:34.542Z,14.36
2022-10-31T23:45:37.365Z,14.45
2022-10-31T23:47:43.289Z,14.55
2022-10-31T23:49:46.699Z,14.51
2022-10-31T23:51:49.520Z,14.39
2022-10-31T23:53:52.262Z,14.38
2022-10-31T23:55:55.729Z,14.38
2022-10-31T23:58:00.247Z,14.33
